Terminal Aerodrome Forecast
Issued by NWS

Home | Current Version | Previous Version | Text Only | Print | Product List | Glossary On
Versions: 1 2 3 4 5 6 7 8 9 10 11 12 13 14 15 16 17 18
000
FTUS43 KMKX 051502 AAA
TAFUES
TAF AMD
KUES 051502Z 0515/0612 23005KT 3SM BR OVC006
     FM051800 20006KT P6SM BKN010
     FM052300 18007KT P6SM BKN035
     FM060800 17005KT P6SM BKN030
     FM061000 17004KT P6SM BKN020=

USA.gov is the U.S. government's official web portal to all federal, state and local government web resources and services.